Earth City, Missouri
Current Conditions -  °F | °C
As of 6:51 AM on Thursday 23 Oct 2014 (Local Time) from KSTL Reporting Station
Broken Clouds Broken Clouds  
Wind Chill: 48°   Ceiling: 25000
Heat Index: 48°   Visibility: 10mi
Dew Point: 40°   Wind: 0mph
Humidity: 74%   Direction: NA
Pressure: 30.21"   Gusts: NA
Location:  38.77°N, 90.47°W
Report Text: KSTL 231151Z 00000KT 10SM BKN250 09/04 A3021 RMK AO2 SLP230 T00890044 10089 20056 53002
Loading
Personal Weather Stations






























Interactive Weather Map
Tropical Storm Tracking
New forecast layout! Learn more

10-Day Weather Forecast

Advertisements
Track Severe Weather on mobile